createdAt,value
2018-08-24T00:00:07.033Z,21.36
2018-08-24T00:02:35.760Z,21.39
2018-08-24T00:05:04.517Z,21.39
2018-08-24T00:07:33.226Z,21.39
2018-08-24T00:10:02.008Z,21.45
2018-08-24T00:12:30.731Z,21.45
2018-08-24T00:14:59.463Z,21.42
2018-08-24T00:17:29.946Z,21.34
2018-08-24T00:19:58.770Z,21.32
2018-08-24T00:22:27.499Z,21.20
2018-08-24T00:24:56.189Z,21.14
2018-08-24T00:27:24.963Z,21.12
2018-08-24T00:29:53.638Z,21.04
2018-08-24T00:32:22.322Z,20.92
2018-08-24T00:34:51.098Z,20.90
2018-08-24T00:37:19.818Z,20.84
2018-08-24T00:39:48.646Z,20.85
2018-08-24T00:42:17.412Z,20.84
2018-08-24T00:44:46.111Z,20.80
2018-08-24T00:47:15.544Z,20.83
2018-08-24T00:49:44.239Z,20.80
2018-08-24T00:52:12.919Z,20.79
2018-08-24T00:54:41.620Z,20.81
2018-08-24T00:57:10.310Z,20.80
2018-08-24T00:59:39.018Z,20.79
2018-08-24T01:02:07.823Z,20.78
2018-08-24T01:04:37.118Z,20.76
2018-08-24T01:07:12.993Z,20.68
2018-08-24T01:09:42.401Z,20.62
2018-08-24T01:12:12.120Z,20.55
2018-08-24T01:14:45.050Z,20.55
2018-08-24T01:17:18.883Z,20.56
2018-08-24T01:19:47.744Z,20.62
2018-08-24T01:22:16.574Z,20.70
2018-08-24T01:24:45.318Z,20.73
2018-08-24T01:27:14.032Z,20.67
2018-08-24T01:29:43.508Z,20.70
2018-08-24T01:32:12.289Z,20.63
2018-08-24T01:34:41.060Z,20.63
2018-08-24T01:37:09.786Z,20.64
2018-08-24T01:39:38.495Z,20.69
2018-08-24T01:42:07.225Z,20.73
2018-08-24T01:44:35.926Z,20.78
2018-08-24T01:47:04.644Z,20.83
2018-08-24T01:49:34.219Z,20.84
2018-08-24T01:52:02.953Z,20.84
2018-08-24T01:54:31.700Z,20.84
2018-08-24T01:57:00.459Z,20.90
2018-08-24T01:59:29.208Z,20.91
2018-08-24T02:01:57.953Z,20.85
2018-08-24T02:04:26.683Z,20.87
2018-08-24T02:06:55.370Z,20.87
2018-08-24T02:09:24.498Z,20.84
2018-08-24T02:11:53.238Z,20.85
2018-08-24T02:14:55.353Z,20.80
2018-08-24T02:17:29.293Z,20.78
2018-08-24T02:20:03.125Z,20.81
2018-08-24T02:22:31.879Z,20.84
2018-08-24T02:25:00.560Z,20.75
2018-08-24T02:27:29.305Z,20.67
2018-08-24T02:29:58.565Z,20.57
2018-08-24T02:32:27.347Z,20.58
2018-08-24T02:34:59.050Z,20.58
2018-08-24T02:37:29.463Z,20.54
2018-08-24T02:39:58.157Z,20.54
2018-08-24T02:42:26.917Z,20.51
2018-08-24T02:44:55.694Z,20.51
2018-08-24T02:47:27.738Z,20.27
2018-08-24T02:49:56.538Z,20.28
2018-08-24T02:52:25.370Z,20.22
2018-08-24T02:54:54.121Z,20.20
2018-08-24T02:57:22.889Z,20.17
2018-08-24T02:59:51.574Z,20.12
2018-08-24T03:02:20.251Z,20.10
2018-08-24T03:04:48.958Z,20.04
2018-08-24T03:07:17.695Z,19.97
2018-08-24T03:09:46.435Z,19.99
2018-08-24T03:12:15.135Z,19.85
2018-08-24T03:14:43.815Z,19.74
2018-08-24T03:17:17.567Z,19.72
2018-08-24T03:19:46.278Z,19.59
2018-08-24T03:22:15.016Z,19.51
2018-08-24T03:24:43.721Z,19.46
2018-08-24T03:27:12.443Z,19.44
2018-08-24T03:29:41.155Z,19.41
2018-08-24T03:32:09.839Z,19.37
2018-08-24T03:34:38.519Z,19.36
2018-08-24T03:37:07.658Z,19.28
2018-08-24T03:39:36.423Z,19.25
2018-08-24T03:42:05.126Z,19.18
2018-08-24T03:44:33.814Z,19.20
2018-08-24T03:47:02.459Z,19.09
2018-08-24T03:49:31.161Z,19.18
2018-08-24T03:51:59.844Z,19.13
2018-08-24T03:54:28.531Z,19.09
2018-08-24T03:56:58.392Z,19.10
2018-08-24T03:59:27.416Z,19.07
2018-08-24T04:01:56.882Z,19.07
2018-08-24T04:04:25.968Z,19.04
2018-08-24T04:06:54.657Z,19.09
2018-08-24T04:09:23.363Z,19.03
2018-08-24T04:11:52.059Z,19.02
2018-08-24T04:14:20.775Z,19.00
2018-08-24T04:16:54.578Z,18.98
2018-08-24T04:19:28.345Z,19.01
2018-08-24T04:21:57.747Z,19.03
2018-08-24T04:24:26.406Z,19.04
2018-08-24T04:26:55.875Z,19.04
2018-08-24T04:29:25.159Z,19.10
2018-08-24T04:31:54.048Z,19.11
2018-08-24T04:34:22.803Z,19.20
2018-08-24T04:36:51.541Z,19.20
2018-08-24T04:39:20.268Z,19.21
2018-08-24T04:41:48.966Z,19.16
2018-08-24T04:44:17.717Z,19.21
2018-08-24T04:46:46.441Z,19.20
2018-08-24T04:49:15.177Z,19.33
2018-08-24T04:51:43.896Z,19.44
2018-08-24T04:54:12.591Z,19.53
2018-08-24T04:56:41.396Z,19.53
2018-08-24T04:59:10.254Z,19.50
2018-08-24T05:01:38.992Z,19.56
2018-08-24T05:04:07.731Z,19.60
2018-08-24T05:06:36.429Z,19.62
2018-08-24T05:09:07.399Z,19.61
2018-08-24T05:11:36.443Z,19.60
2018-08-24T05:14:05.182Z,19.67
2018-08-24T05:16:33.902Z,19.71
2018-08-24T05:19:02.604Z,19.74
2018-08-24T05:21:31.422Z,19.79
2018-08-24T05:24:00.061Z,19.91
2018-08-24T05:26:28.776Z,19.93
2018-08-24T05:28:57.562Z,19.96
2018-08-24T05:31:26.288Z,20.02
2018-08-24T05:33:55.066Z,20.05
2018-08-24T05:36:23.756Z,20.09
2018-08-24T05:38:52.463Z,20.12
2018-08-24T05:41:21.167Z,20.20
2018-08-24T05:43:49.918Z,20.31
2018-08-24T05:46:18.641Z,20.32
2018-08-24T05:48:47.405Z,20.35
2018-08-24T05:51:16.623Z,20.42
2018-08-24T05:53:45.407Z,20.52
2018-08-24T05:56:14.206Z,20.63
2018-08-24T05:58:43.024Z,20.74
2018-08-24T06:01:11.772Z,20.81
2018-08-24T06:03:40.583Z,20.88
2018-08-24T06:06:09.294Z,20.94
2018-08-24T06:08:38.027Z,20.98
2018-08-24T06:11:06.915Z,21.09
2018-08-24T06:13:35.646Z,21.18
2018-08-24T06:16:04.378Z,21.28
2018-08-24T06:18:33.059Z,21.37
2018-08-24T06:21:01.831Z,21.51
2018-08-24T06:23:30.568Z,21.66
2018-08-24T06:25:59.280Z,21.67
2018-08-24T06:28:28.032Z,21.68
2018-08-24T06:30:56.739Z,21.66
2018-08-24T06:33:25.512Z,21.78
2018-08-24T06:35:54.301Z,21.96
2018-08-24T06:38:23.015Z,21.97
2018-08-24T06:40:51.799Z,22.05
2018-08-24T06:43:20.473Z,22.12
2018-08-24T06:45:49.215Z,22.23
2018-08-24T06:48:17.917Z,22.31
2018-08-24T06:50:46.686Z,22.40
2018-08-24T06:53:15.528Z,22.47
2018-08-24T06:55:44.103Z,22.50
2018-08-24T06:58:12.881Z,22.55
2018-08-24T07:00:43.939Z,22.59
2018-08-24T07:03:12.864Z,22.69
2018-08-24T07:05:41.645Z,22.68
2018-08-24T07:08:10.442Z,22.75
2018-08-24T07:10:39.151Z,22.82
2018-08-24T07:13:07.950Z,22.98
2018-08-24T07:15:36.668Z,23.08
2018-08-24T07:18:05.604Z,23.15
2018-08-24T07:20:34.281Z,23.25
2018-08-24T07:23:02.964Z,23.41
2018-08-24T07:25:31.668Z,23.56
2018-08-24T07:28:00.327Z,23.45
2018-08-24T07:30:29.066Z,23.66
2018-08-24T07:32:57.825Z,23.69
2018-08-24T07:35:26.503Z,23.81
2018-08-24T07:37:55.193Z,23.90
2018-08-24T07:40:23.876Z,23.97
2018-08-24T07:42:52.650Z,24.09
2018-08-24T07:45:21.400Z,24.12
2018-08-24T07:47:50.141Z,24.27
2018-08-24T07:50:18.848Z,24.39
2018-08-24T07:52:47.490Z,24.56
2018-08-24T07:55:16.192Z,24.53
2018-08-24T07:57:44.886Z,24.71
2018-08-24T08:00:16.102Z,24.77
2018-08-24T08:02:46.715Z,24.73
2018-08-24T08:05:15.853Z,24.84
2018-08-24T08:07:44.831Z,24.93
2018-08-24T08:10:13.527Z,24.93
2018-08-24T08:12:42.300Z,24.91
2018-08-24T08:15:11.430Z,24.98
2018-08-24T08:17:40.909Z,25.11
2018-08-24T08:20:10.271Z,25.19
2018-08-24T08:22:38.986Z,25.29
2018-08-24T08:25:07.906Z,25.30
2018-08-24T08:27:36.593Z,25.34
2018-08-24T08:30:07.206Z,25.32
2018-08-24T08:32:35.939Z,25.53
2018-08-24T08:35:04.679Z,25.57
2018-08-24T08:37:33.509Z,25.61
2018-08-24T08:40:03.227Z,25.67
2018-08-24T08:42:31.963Z,25.63
2018-08-24T08:45:00.907Z,25.76
2018-08-24T08:47:29.594Z,25.92
2018-08-24T08:49:58.281Z,26.10
2018-08-24T08:52:26.971Z,26.03
2018-08-24T08:54:55.644Z,26.07
2018-08-24T08:57:24.349Z,26.14
2018-08-24T08:59:53.036Z,26.33
2018-08-24T09:02:21.786Z,26.42
2018-08-24T09:04:50.475Z,26.56
2018-08-24T09:07:19.131Z,26.77
2018-08-24T09:09:47.825Z,26.85
2018-08-24T09:12:16.500Z,26.76
2018-08-24T09:14:45.218Z,26.85
2018-08-24T09:17:18.994Z,26.81
2018-08-24T09:19:52.858Z,26.91
2018-08-24T09:22:26.763Z,26.97
2018-08-24T09:25:00.618Z,27.01
2018-08-24T09:27:32.860Z,27.08
2018-08-24T09:30:04.637Z,27.03
2018-08-24T09:32:33.481Z,27.11
2018-08-24T09:35:02.121Z,27.15
2018-08-24T09:37:35.489Z,27.27
2018-08-24T09:40:04.830Z,27.38
2018-08-24T09:42:33.550Z,27.30
2018-08-24T09:45:02.480Z,27.44
2018-08-24T09:47:36.261Z,27.46
2018-08-24T09:50:10.217Z,27.42
2018-08-24T09:52:38.918Z,27.65
2018-08-24T09:55:07.679Z,27.81
2018-08-24T09:57:36.445Z,27.80
2018-08-24T10:00:06.765Z,27.95
2018-08-24T10:02:40.608Z,27.97
2018-08-24T10:05:14.533Z,28.02
2018-08-24T10:08:47.951Z,28.09
2018-08-24T10:11:16.660Z,27.97
2018-08-24T10:13:45.492Z,28.10
2018-08-24T10:16:14.762Z,28.16
2018-08-24T10:18:43.619Z,28.08
2018-08-24T10:21:12.407Z,28.08
2018-08-24T10:23:41.234Z,28.07
2018-08-24T10:26:10.071Z,28.30
2018-08-24T10:28:38.728Z,28.29
2018-08-24T10:31:07.436Z,28.35
2018-08-24T10:33:36.129Z,28.40
2018-08-24T10:36:04.811Z,28.43
2018-08-24T10:38:33.498Z,28.48
2018-08-24T10:41:02.213Z,28.32
2018-08-24T10:43:30.883Z,28.37
2018-08-24T10:45:59.716Z,28.16
2018-08-24T10:48:28.393Z,28.30
2018-08-24T10:50:57.088Z,28.49
2018-08-24T10:53:25.764Z,28.47
2018-08-24T10:55:54.496Z,28.82
2018-08-24T10:58:23.192Z,29.15
2018-08-24T11:00:51.880Z,29.45
2018-08-24T11:03:20.591Z,29.91
2018-08-24T11:05:49.291Z,30.13
2018-08-24T11:08:18.074Z,30.65
2018-08-24T11:10:46.731Z,31.36
2018-08-24T11:13:15.426Z,31.60
2018-08-24T11:15:44.555Z,31.96
2018-08-24T11:18:13.297Z,32.10
2018-08-24T11:20:42.562Z,32.69
2018-08-24T11:23:11.346Z,32.85
2018-08-24T11:25:39.970Z,32.57
2018-08-24T11:28:08.697Z,32.93
2018-08-24T11:30:37.398Z,33.00
2018-08-24T11:33:06.166Z,33.01
2018-08-24T11:35:34.886Z,33.58
2018-08-24T11:38:03.574Z,33.66
2018-08-24T11:40:32.254Z,33.83
2018-08-24T11:43:00.960Z,33.71
2018-08-24T11:45:29.737Z,34.27
2018-08-24T11:47:58.441Z,34.03
2018-08-24T11:50:27.139Z,34.11
2018-08-24T11:52:55.880Z,34.11
2018-08-24T11:55:24.649Z,34.21
2018-08-24T11:57:53.373Z,34.25
2018-08-24T12:00:26.239Z,33.94
2018-08-24T12:02:54.986Z,33.90
2018-08-24T12:05:23.715Z,33.71
2018-08-24T12:07:52.441Z,34.04
2018-08-24T12:10:21.273Z,34.48
2018-08-24T12:12:49.970Z,34.75
2018-08-24T12:15:18.674Z,34.83
2018-08-24T12:17:48.470Z,34.84
2018-08-24T12:20:17.168Z,34.57
2018-08-24T12:22:45.902Z,34.70
2018-08-24T12:25:14.607Z,35.08
2018-08-24T12:27:43.266Z,34.79
2018-08-24T12:30:12.046Z,35.18
2018-08-24T12:32:40.743Z,35.62
2018-08-24T12:35:10.442Z,35.81
2018-08-24T12:37:45.210Z,35.47
2018-08-24T12:40:14.581Z,35.86
2018-08-24T12:42:43.335Z,35.83
2018-08-24T12:45:12.011Z,35.73
2018-08-24T12:47:40.949Z,35.67
2018-08-24T12:50:10.286Z,35.75
2018-08-24T12:52:38.996Z,35.64
2018-08-24T12:55:07.783Z,35.75
2018-08-24T12:57:36.487Z,36.15
2018-08-24T13:00:06.720Z,36.26
2018-08-24T13:02:35.400Z,36.22
2018-08-24T13:05:04.188Z,36.40
2018-08-24T13:07:32.903Z,36.15
2018-08-24T13:10:01.647Z,36.38
2018-08-24T13:12:30.415Z,36.27
2018-08-24T13:14:59.078Z,36.31
2018-08-24T13:17:27.791Z,36.39
2018-08-24T13:19:56.487Z,36.52
2018-08-24T13:22:25.159Z,36.46
2018-08-24T13:24:53.864Z,36.86
2018-08-24T13:27:22.724Z,37.02
2018-08-24T13:29:51.414Z,36.84
2018-08-24T13:32:20.118Z,36.65
2018-08-24T13:34:48.866Z,36.56
2018-08-24T13:37:17.578Z,36.33
2018-08-24T13:39:46.258Z,36.35
2018-08-24T13:42:15.047Z,36.32
2018-08-24T13:44:43.740Z,36.40
2018-08-24T13:47:12.481Z,36.00
2018-08-24T13:49:41.227Z,35.48
2018-08-24T13:52:09.931Z,35.75
2018-08-24T13:54:38.682Z,36.10
2018-08-24T13:57:07.367Z,36.19
2018-08-24T13:59:36.157Z,36.46
2018-08-24T14:02:04.947Z,36.57
2018-08-24T14:04:33.707Z,36.05
2018-08-24T14:07:02.399Z,36.06
2018-08-24T14:09:31.141Z,36.08
2018-08-24T14:12:00.273Z,35.35
2018-08-24T14:14:29.092Z,34.95
2018-08-24T14:16:58.471Z,35.19
2018-08-24T14:19:27.595Z,35.41
2018-08-24T14:21:56.337Z,35.88
2018-08-24T14:24:25.186Z,36.31
2018-08-24T14:26:53.859Z,36.50
2018-08-24T14:29:22.610Z,36.58
2018-08-24T14:31:51.408Z,36.05
2018-08-24T14:34:20.058Z,35.23
2018-08-24T14:36:48.770Z,34.96
2018-08-24T14:39:18.780Z,34.93
2018-08-24T14:41:47.451Z,34.97
2018-08-24T14:44:16.186Z,35.28
2018-08-24T14:46:44.927Z,35.57
2018-08-24T14:49:13.615Z,35.43
2018-08-24T14:51:42.342Z,35.60
2018-08-24T14:54:11.047Z,35.63
2018-08-24T14:56:39.785Z,35.27
2018-08-24T14:59:08.508Z,35.39
2018-08-24T15:01:37.210Z,35.07
2018-08-24T15:04:05.927Z,35.17
2018-08-24T15:06:34.682Z,35.43
2018-08-24T15:09:03.543Z,35.53
2018-08-24T15:11:32.360Z,35.50
2018-08-24T15:14:01.074Z,35.51
2018-08-24T15:16:29.865Z,35.50
2018-08-24T15:18:58.558Z,35.21
2018-08-24T15:21:27.238Z,35.20
2018-08-24T15:23:55.952Z,35.00
2018-08-24T15:26:24.799Z,34.65
2018-08-24T15:28:53.576Z,34.64
2018-08-24T15:31:22.322Z,34.95
2018-08-24T15:33:51.015Z,34.80
2018-08-24T15:36:19.751Z,35.25
2018-08-24T15:38:48.455Z,35.18
2018-08-24T15:41:17.318Z,34.92
2018-08-24T15:43:46.036Z,34.85
2018-08-24T15:46:14.811Z,34.82
2018-08-24T15:48:43.515Z,34.76
2018-08-24T15:51:12.218Z,34.18
2018-08-24T15:53:40.984Z,34.47
2018-08-24T15:56:09.763Z,34.18
2018-08-24T15:58:38.445Z,34.21
2018-08-24T16:01:07.303Z,34.20
2018-08-24T16:03:36.039Z,34.05
2018-08-24T16:06:04.768Z,33.85
2018-08-24T16:08:33.507Z,33.65
2018-08-24T16:11:02.218Z,33.75
2018-08-24T16:13:31.015Z,33.29
2018-08-24T16:15:59.771Z,33.04
2018-08-24T16:18:28.572Z,32.85
2018-08-24T16:20:57.711Z,32.81
2018-08-24T16:23:26.448Z,32.76
2018-08-24T16:25:55.167Z,32.52
2018-08-24T16:28:23.835Z,32.30
2018-08-24T16:30:52.548Z,31.82
2018-08-24T16:33:21.199Z,31.97
2018-08-24T16:35:49.911Z,31.79
2018-08-24T16:38:18.706Z,31.61
2018-08-24T16:40:47.495Z,31.30
2018-08-24T16:43:16.394Z,31.32
2018-08-24T16:45:45.216Z,30.93
2018-08-24T16:48:13.914Z,30.77
2018-08-24T16:50:42.634Z,30.22
2018-08-24T16:53:11.302Z,30.04
2018-08-24T16:55:40.093Z,29.84
2018-08-24T16:58:09.006Z,29.66
2018-08-24T17:00:37.834Z,29.49
2018-08-24T17:03:06.529Z,29.45
2018-08-24T17:05:35.293Z,29.15
2018-08-24T17:08:04.004Z,28.94
2018-08-24T17:10:32.714Z,28.85
2018-08-24T17:13:01.592Z,28.68
2018-08-24T17:15:30.340Z,28.43
2018-08-24T17:17:59.084Z,28.39
2018-08-24T17:20:27.791Z,28.14
2018-08-24T17:22:56.627Z,28.03
2018-08-24T17:25:25.771Z,27.95
2018-08-24T17:27:54.530Z,27.82
2018-08-24T17:30:23.712Z,27.68
2018-08-24T17:32:52.445Z,27.45
2018-08-24T17:35:21.315Z,27.23
2018-08-24T17:37:50.150Z,27.20
2018-08-24T17:40:19.079Z,27.12
2018-08-24T17:42:47.762Z,26.99
2018-08-24T17:45:16.633Z,26.80
2018-08-24T17:47:45.364Z,26.67
2018-08-24T17:50:14.026Z,26.59
2018-08-24T17:52:42.732Z,26.65
2018-08-24T17:55:11.548Z,26.58
2018-08-24T17:57:40.314Z,26.49
2018-08-24T18:00:09.135Z,26.40
2018-08-24T18:02:37.887Z,26.34
2018-08-24T18:05:06.748Z,26.29
2018-08-24T18:07:35.492Z,26.33
2018-08-24T18:10:04.270Z,26.17
2018-08-24T18:12:33.009Z,26.06
2018-08-24T18:15:01.955Z,26.01
2018-08-24T18:17:30.560Z,25.85
2018-08-24T18:19:59.306Z,25.83
2018-08-24T18:22:28.002Z,25.77
2018-08-24T18:24:57.582Z,25.62
2018-08-24T18:27:26.397Z,25.64
2018-08-24T18:29:55.226Z,25.57
2018-08-24T18:32:24.003Z,25.46
2018-08-24T18:34:52.927Z,25.46
2018-08-24T18:37:21.666Z,25.24
2018-08-24T18:39:50.625Z,25.07
2018-08-24T18:42:19.301Z,25.02
2018-08-24T18:44:48.021Z,24.91
2018-08-24T18:47:16.766Z,24.92
2018-08-24T18:49:45.495Z,24.77
2018-08-24T18:52:14.227Z,24.66
2018-08-24T18:54:43.012Z,24.68
2018-08-24T18:57:11.797Z,24.71
2018-08-24T18:59:40.653Z,24.66
2018-08-24T19:02:10.058Z,24.72
2018-08-24T19:04:38.901Z,24.58
2018-08-24T19:07:08.613Z,24.59
2018-08-24T19:09:37.347Z,24.58
2018-08-24T19:12:11.469Z,24.45
2018-08-24T19:14:40.189Z,24.41
2018-08-24T19:17:13.062Z,24.27
2018-08-24T19:19:46.907Z,24.16
2018-08-24T19:22:15.663Z,24.09
2018-08-24T19:24:44.434Z,24.01
2018-08-24T19:27:13.150Z,23.99
2018-08-24T19:29:46.999Z,23.89
2018-08-24T19:32:15.667Z,23.87
2018-08-24T19:34:44.384Z,23.84
2018-08-24T19:37:13.323Z,23.79
2018-08-24T19:39:46.235Z,23.71
2018-08-24T19:42:20.153Z,23.71
2018-08-24T19:44:48.811Z,23.66
2018-08-24T19:48:22.147Z,23.69
2018-08-24T19:50:50.959Z,23.63
2018-08-24T19:53:19.675Z,23.54
2018-08-24T19:55:48.457Z,23.58
2018-08-24T19:58:22.425Z,23.60
2018-08-24T20:00:51.285Z,23.47
2018-08-24T20:03:20.014Z,23.40
2018-08-24T20:05:54.975Z,23.32
2018-08-24T20:08:29.011Z,23.22
2018-08-24T20:10:57.754Z,23.28
2018-08-24T20:13:26.434Z,23.31
2018-08-24T20:16:00.154Z,23.32
2018-08-24T20:18:28.912Z,23.27
2018-08-24T20:20:57.814Z,23.26
2018-08-24T20:23:26.527Z,23.23
2018-08-24T20:25:55.251Z,23.24
2018-08-24T20:28:23.983Z,23.20
2018-08-24T20:30:52.706Z,23.16
2018-08-24T20:33:21.482Z,23.17
2018-08-24T20:35:50.228Z,23.15
2018-08-24T20:38:18.951Z,23.13
2018-08-24T20:40:47.711Z,23.06
2018-08-24T20:43:16.410Z,23.02
2018-08-24T20:45:45.151Z,23.03
2018-08-24T20:48:14.019Z,22.96
2018-08-24T20:50:42.763Z,22.93
2018-08-24T20:53:11.498Z,22.92
2018-08-24T20:55:40.296Z,22.83
2018-08-24T20:58:08.905Z,22.78
2018-08-24T21:00:37.675Z,22.81
2018-08-24T21:03:06.683Z,22.72
2018-08-24T21:05:35.386Z,22.66
2018-08-24T21:08:04.129Z,22.62
2018-08-24T21:10:32.799Z,22.58
2018-08-24T21:13:01.506Z,22.59
2018-08-24T21:15:30.199Z,22.59
2018-08-24T21:17:58.925Z,22.55
2018-08-24T21:20:27.705Z,22.51
2018-08-24T21:22:56.506Z,22.40
2018-08-24T21:25:25.255Z,22.46
2018-08-24T21:27:53.970Z,22.46
2018-08-24T21:30:22.750Z,22.31
2018-08-24T21:32:51.466Z,22.34
2018-08-24T21:35:20.186Z,22.30
2018-08-24T21:37:48.871Z,22.22
2018-08-24T21:40:17.644Z,22.26
2018-08-24T21:42:46.351Z,22.27
2018-08-24T21:45:15.065Z,22.25
2018-08-24T21:47:43.785Z,22.23
2018-08-24T21:50:12.511Z,22.21
2018-08-24T21:52:41.216Z,22.20
2018-08-24T21:55:09.914Z,22.20
2018-08-24T21:57:38.628Z,22.25
2018-08-24T22:00:12.299Z,22.20
2018-08-24T22:02:40.955Z,22.15
2018-08-24T22:05:09.635Z,22.18
2018-08-24T22:07:38.382Z,22.17
2018-08-24T22:10:07.096Z,22.16
2018-08-24T22:12:36.075Z,22.13
2018-08-24T22:15:04.849Z,22.12
2018-08-24T22:17:33.575Z,22.08
2018-08-24T22:20:02.251Z,22.14
2018-08-24T22:22:30.927Z,22.09
2018-08-24T22:24:59.628Z,22.15
2018-08-24T22:27:28.371Z,22.11
2018-08-24T22:29:57.111Z,22.07
2018-08-24T22:32:25.777Z,22.07
2018-08-24T22:34:54.496Z,22.00
2018-08-24T22:37:23.237Z,22.01
2018-08-24T22:39:51.940Z,21.90
2018-08-24T22:42:20.667Z,21.92
2018-08-24T22:44:49.363Z,21.94
2018-08-24T22:47:18.051Z,21.82
2018-08-24T22:49:46.755Z,21.80
2018-08-24T22:52:16.463Z,21.76
2018-08-24T22:54:45.192Z,21.76
2018-08-24T22:57:13.985Z,21.73
2018-08-24T22:59:42.739Z,21.66
2018-08-24T23:02:11.386Z,21.60
2018-08-24T23:04:40.069Z,21.50
2018-08-24T23:07:08.805Z,21.43
2018-08-24T23:09:37.495Z,21.39
2018-08-24T23:12:06.227Z,21.39
2018-08-24T23:14:34.984Z,21.27
2018-08-24T23:17:03.792Z,21.23
2018-08-24T23:19:32.571Z,21.11
2018-08-24T23:22:01.223Z,21.03
2018-08-24T23:24:29.941Z,20.89
2018-08-24T23:26:58.681Z,20.85
2018-08-24T23:29:27.392Z,20.82
2018-08-24T23:31:56.104Z,20.83
2018-08-24T23:34:24.796Z,20.78
